createdAt,value
2018-05-09T00:00:07.268Z,11.20
2018-05-09T00:02:36.247Z,11.77
2018-05-09T00:05:05.274Z,21.07
2018-05-09T00:07:34.247Z,12.73
2018-05-09T00:10:03.212Z,13.43
2018-05-09T00:12:32.232Z,11.37
2018-05-09T00:15:01.200Z,13.53
2018-05-09T00:17:30.171Z,12.27
2018-05-09T00:19:59.146Z,16.43
2018-05-09T00:22:28.111Z,14.13
2018-05-09T00:24:57.122Z,12.97
2018-05-09T00:27:26.107Z,10.83
2018-05-09T00:29:55.084Z,13.50
2018-05-09T00:32:24.048Z,13.40
2018-05-09T00:34:53.267Z,13.43
2018-05-09T00:37:22.279Z,14.33
2018-05-09T00:39:51.226Z,11.80
2018-05-09T00:42:20.211Z,13.53
2018-05-09T00:44:49.176Z,14.40
2018-05-09T00:47:18.165Z,15.03
2018-05-09T00:49:47.163Z,11.57
2018-05-09T00:52:16.152Z,12.60
2018-05-09T00:54:45.116Z,14.13
2018-05-09T00:57:14.122Z,18.57
2018-05-09T00:59:43.107Z,12.37
2018-05-09T01:02:12.082Z,15.90
2018-05-09T01:04:41.089Z,15.83
2018-05-09T01:07:10.083Z,11.33
2018-05-09T01:09:39.065Z,14.03
2018-05-09T01:12:08.038Z,12.33
2018-05-09T01:14:37.002Z,14.77
2018-05-09T01:17:06.016Z,17.70
2018-05-09T01:19:35.069Z,16.87
2018-05-09T01:22:03.993Z,15.60
2018-05-09T01:24:32.958Z,18.43
2018-05-09T01:27:01.954Z,20.17
2018-05-09T01:29:30.986Z,14.30
2018-05-09T01:31:59.979Z,15.97
2018-05-09T01:34:28.958Z,12.83
2018-05-09T01:36:57.931Z,15.20
2018-05-09T01:39:26.928Z,20.17
2018-05-09T01:41:55.948Z,16.60
2018-05-09T01:44:24.933Z,16.73
2018-05-09T01:46:53.899Z,15.80
2018-05-09T01:49:22.892Z,18.03
2018-05-09T01:51:51.854Z,17.10
2018-05-09T01:54:20.857Z,19.10
2018-05-09T01:56:50.068Z,17.00
2018-05-09T01:59:19.043Z,18.10
2018-05-09T02:01:48.010Z,19.03
2018-05-09T02:04:16.977Z,19.63
2018-05-09T02:06:46.010Z,22.00
2018-05-09T02:09:14.973Z,16.83
2018-05-09T02:11:43.944Z,20.07
2018-05-09T02:14:12.898Z,20.80
2018-05-09T02:16:41.861Z,20.87
2018-05-09T02:19:10.874Z,19.30
2018-05-09T02:21:39.877Z,22.07
2018-05-09T02:24:08.969Z,22.00
2018-05-09T02:26:37.867Z,16.00
2018-05-09T02:29:06.838Z,18.97
2018-05-09T02:31:35.839Z,23.30
2018-05-09T02:34:04.831Z,20.80
2018-05-09T02:36:33.820Z,20.33
2018-05-09T02:39:02.787Z,19.47
2018-05-09T02:41:31.781Z,22.37
2018-05-09T02:44:00.823Z,19.57
2018-05-09T02:46:30.108Z,20.00
2018-05-09T02:48:59.080Z,21.80
2018-05-09T02:51:28.051Z,21.43
2018-05-09T02:53:57.023Z,21.87
2018-05-09T02:56:26.035Z,19.17
2018-05-09T02:58:55.005Z,22.07
2018-05-09T03:01:24.044Z,20.83
2018-05-09T03:03:53.046Z,18.23
2018-05-09T03:06:22.024Z,22.07
2018-05-09T03:08:51.069Z,22.53
2018-05-09T03:11:20.043Z,23.10
2018-05-09T03:13:49.007Z,23.20
2018-05-09T03:16:17.971Z,21.20
2018-05-09T03:18:46.935Z,19.03
2018-05-09T03:21:16.780Z,22.07
2018-05-09T03:23:45.741Z,23.20
2018-05-09T03:26:14.741Z,20.83
2018-05-09T03:28:43.727Z,19.87
2018-05-09T03:31:12.692Z,18.70
2018-05-09T03:33:41.716Z,22.83
2018-05-09T03:36:10.673Z,22.17
2018-05-09T03:38:39.634Z,19.20
2018-05-09T03:41:08.603Z,24.50
2018-05-09T03:43:37.583Z,20.50
2018-05-09T03:46:06.599Z,20.13
2018-05-09T03:48:35.580Z,22.47
2018-05-09T03:51:04.565Z,18.43
2018-05-09T03:53:33.548Z,19.83
2018-05-09T03:56:02.534Z,20.87
2018-05-09T03:58:31.544Z,18.17
2018-05-09T04:01:00.511Z,17.90
2018-05-09T04:03:35.415Z,20.27
2018-05-09T04:08:37.204Z,16.80
2018-05-09T04:11:06.165Z,19.33
2018-05-09T04:13:35.146Z,20.67
2018-05-09T04:16:04.138Z,19.30
2018-05-09T04:18:33.122Z,21.17
2018-05-09T04:21:02.126Z,21.30
2018-05-09T04:23:31.097Z,20.30
2018-05-09T04:26:00.066Z,17.47
2018-05-09T04:28:29.032Z,19.03
2018-05-09T04:30:58.035Z,17.23
2018-05-09T04:33:26.993Z,19.50
2018-05-09T04:35:55.965Z,21.20
2018-05-09T04:38:25.016Z,19.80
2018-05-09T04:40:54.003Z,18.87
2018-05-09T04:43:23.014Z,19.47
2018-05-09T04:45:51.998Z,15.83
2018-05-09T04:48:20.977Z,17.00
2018-05-09T04:50:49.939Z,16.97
2018-05-09T04:53:18.929Z,18.70
2018-05-09T04:55:47.954Z,17.37
2018-05-09T04:58:16.920Z,16.63
2018-05-09T05:00:45.896Z,14.70
2018-05-09T05:03:14.874Z,14.73
2018-05-09T05:05:43.867Z,16.03
2018-05-09T05:08:12.874Z,16.03
2018-05-09T05:10:41.841Z,20.17
2018-05-09T05:13:10.817Z,16.87
2018-05-09T05:15:39.815Z,18.50
2018-05-09T05:18:08.806Z,15.23
2018-05-09T05:20:37.869Z,17.77
2018-05-09T05:23:06.839Z,14.60
2018-05-09T05:25:35.857Z,21.97
2018-05-09T05:28:04.853Z,14.60
2018-05-09T05:30:33.826Z,15.67
2018-05-09T05:33:02.812Z,14.50
2018-05-09T05:35:31.775Z,18.00
2018-05-09T05:38:00.766Z,16.57
2018-05-09T05:40:29.723Z,19.03
2018-05-09T05:42:58.670Z,18.60
2018-05-09T05:45:27.634Z,17.40
2018-05-09T05:47:56.611Z,15.20
2018-05-09T05:50:25.606Z,14.70
2018-05-09T05:52:54.567Z,13.23
2018-05-09T05:55:23.532Z,15.83
2018-05-09T05:57:52.500Z,18.77
2018-05-09T06:00:21.442Z,14.87
2018-05-09T06:02:50.437Z,14.47
2018-05-09T06:05:19.386Z,12.27
2018-05-09T06:07:48.334Z,13.67
2018-05-09T06:10:17.285Z,15.13
2018-05-09T06:12:46.242Z,12.47
2018-05-09T06:15:15.222Z,10.77
2018-05-09T06:17:44.183Z,9.20
2018-05-09T06:20:13.115Z,14.63
2018-05-09T06:22:42.062Z,13.83
2018-05-09T06:25:11.087Z,12.17
2018-05-09T06:27:40.163Z,11.40
2018-05-09T06:30:09.162Z,13.73
2018-05-09T06:32:38.639Z,14.20
2018-05-09T06:35:07.630Z,12.60
2018-05-09T06:37:36.677Z,13.97
2018-05-09T06:40:05.767Z,15.00
2018-05-09T06:42:34.939Z,12.40
2018-05-09T06:45:03.943Z,13.50
2018-05-09T06:47:32.919Z,11.13
2018-05-09T06:50:01.894Z,14.77
2018-05-09T06:52:30.880Z,14.80
2018-05-09T06:54:59.822Z,15.37
2018-05-09T06:57:28.787Z,14.47
2018-05-09T06:59:57.764Z,14.67
2018-05-09T07:02:26.727Z,14.80
2018-05-09T07:04:55.730Z,14.80
2018-05-09T07:07:24.669Z,16.67
2018-05-09T07:09:53.619Z,11.83
2018-05-09T07:12:22.674Z,10.60
2018-05-09T07:14:51.640Z,12.40
2018-05-09T07:17:20.632Z,13.47
2018-05-09T07:19:49.575Z,13.97
2018-05-09T07:22:18.543Z,9.97
2018-05-09T07:24:47.539Z,12.03
2018-05-09T07:27:16.479Z,12.80
2018-05-09T07:29:45.473Z,12.40
2018-05-09T07:32:14.436Z,15.73
2018-05-09T07:34:43.445Z,13.37
2018-05-09T07:37:12.374Z,12.03
2018-05-09T07:39:41.318Z,12.90
2018-05-09T07:42:10.360Z,13.37
2018-05-09T07:44:39.297Z,13.43
2018-05-09T07:47:08.256Z,11.33
2018-05-09T07:49:37.211Z,13.13
2018-05-09T07:52:06.154Z,14.23
2018-05-09T07:54:35.102Z,15.77
2018-05-09T07:57:04.083Z,13.87
2018-05-09T07:59:33.025Z,15.17
2018-05-09T08:02:02.049Z,16.77
2018-05-09T08:04:30.987Z,13.53
2018-05-09T08:06:59.928Z,11.43
2018-05-09T08:09:28.926Z,14.53
2018-05-09T08:11:57.876Z,10.57
2018-05-09T08:14:26.818Z,12.40
2018-05-09T08:16:55.775Z,12.53
2018-05-09T08:19:24.733Z,12.83
2018-05-09T08:21:53.676Z,12.30
2018-05-09T08:24:22.618Z,16.50
2018-05-09T08:26:51.627Z,12.87
2018-05-09T08:29:20.583Z,10.30
2018-05-09T08:31:49.525Z,11.33
2018-05-09T08:34:18.469Z,10.97
2018-05-09T08:36:47.437Z,12.53
2018-05-09T08:39:16.407Z,10.90
2018-05-09T08:41:45.367Z,10.57
2018-05-09T08:44:14.329Z,15.70
2018-05-09T08:46:43.274Z,9.97
2018-05-09T08:49:12.319Z,11.93
2018-05-09T08:51:41.264Z,9.83
2018-05-09T08:54:10.214Z,11.50
2018-05-09T08:56:39.236Z,12.60
2018-05-09T08:59:08.143Z,7.80
2018-05-09T09:01:37.122Z,8.63
2018-05-09T09:04:06.075Z,10.00
2018-05-09T09:06:35.013Z,9.23
2018-05-09T09:09:03.953Z,12.13
2018-05-09T09:11:32.944Z,9.20
2018-05-09T09:14:01.886Z,11.07
2018-05-09T09:16:30.823Z,9.90
2018-05-09T09:18:59.769Z,11.70
2018-05-09T09:21:28.730Z,11.57
2018-05-09T09:23:57.725Z,9.20
2018-05-09T09:26:26.669Z,13.23
2018-05-09T09:28:55.622Z,9.03
2018-05-09T09:31:24.567Z,9.47
2018-05-09T09:33:53.527Z,12.70
2018-05-09T09:36:22.515Z,6.77
2018-05-09T09:38:51.482Z,11.77
2018-05-09T09:41:20.433Z,11.50
2018-05-09T09:43:49.409Z,9.47
2018-05-09T09:46:18.349Z,8.83
2018-05-09T09:48:47.294Z,9.33
2018-05-09T09:51:16.250Z,8.20
2018-05-09T09:53:45.256Z,8.83
2018-05-09T09:56:14.202Z,7.03
2018-05-09T09:58:43.169Z,11.93
2018-05-09T10:01:12.134Z,7.87
2018-05-09T10:03:41.072Z,6.50
2018-05-09T10:06:10.042Z,11.13
2018-05-09T10:08:39.001Z,11.63
2018-05-09T10:11:07.992Z,9.00
2018-05-09T10:13:36.925Z,8.27
2018-05-09T10:16:05.987Z,9.53
2018-05-09T10:18:34.841Z,10.97
2018-05-09T10:21:03.874Z,10.67
2018-05-09T10:23:32.810Z,8.67
2018-05-09T10:26:01.745Z,8.53
2018-05-09T10:28:30.692Z,11.00
2018-05-09T10:30:59.640Z,7.40
2018-05-09T10:33:28.603Z,12.30
2018-05-09T10:35:57.611Z,10.43
2018-05-09T10:38:26.599Z,12.87
2018-05-09T10:40:55.541Z,9.33
2018-05-09T10:43:24.507Z,12.63
2018-05-09T10:45:53.449Z,12.40
2018-05-09T10:48:22.418Z,10.23
2018-05-09T10:50:51.465Z,12.57
2018-05-09T10:53:20.510Z,13.53
2018-05-09T10:55:49.451Z,8.90
2018-05-09T10:58:18.411Z,10.67
2018-05-09T11:00:47.389Z,11.57
2018-05-09T11:03:16.360Z,10.30
2018-05-09T11:05:45.296Z,8.57
2018-05-09T11:08:14.247Z,9.90
2018-05-09T11:10:43.252Z,13.87
2018-05-09T11:13:12.197Z,13.47
2018-05-09T11:15:41.161Z,13.57
2018-05-09T11:18:10.188Z,9.67
2018-05-09T11:20:39.092Z,8.87
2018-05-09T11:23:08.087Z,10.57
2018-05-09T11:25:37.029Z,10.23
2018-05-09T11:28:05.981Z,7.03
2018-05-09T11:30:34.919Z,9.50
2018-05-09T11:33:03.871Z,8.93
2018-05-09T11:35:32.872Z,10.37
2018-05-09T11:38:01.826Z,7.93
2018-05-09T11:40:30.790Z,11.63
2018-05-09T11:42:59.754Z,11.13
2018-05-09T11:45:28.714Z,8.43
2018-05-09T11:47:57.715Z,12.23
2018-05-09T11:50:26.685Z,6.80
2018-05-09T11:52:55.669Z,8.10
2018-05-09T11:55:24.628Z,14.80
2018-05-09T11:57:53.580Z,8.23
2018-05-09T12:00:22.572Z,9.67
2018-05-09T12:02:51.551Z,15.23
2018-05-09T12:05:20.481Z,8.07
2018-05-09T12:07:50.167Z,11.83
2018-05-09T12:10:19.164Z,8.68
2018-05-09T12:12:48.132Z,9.10
2018-05-09T12:15:18.004Z,8.50
2018-05-09T12:17:46.986Z,8.93
2018-05-09T12:20:15.920Z,8.83
2018-05-09T12:22:44.857Z,7.40
2018-05-09T12:25:14.147Z,10.80
2018-05-09T12:27:43.091Z,8.73
2018-05-09T12:30:12.145Z,12.30
2018-05-09T12:32:41.094Z,9.63
2018-05-09T12:35:10.042Z,9.73
2018-05-09T12:37:38.989Z,8.80
2018-05-09T12:40:07.935Z,7.73
2018-05-09T12:42:36.958Z,13.03
2018-05-09T12:45:05.919Z,8.57
2018-05-09T12:47:35.272Z,7.63
2018-05-09T12:50:04.341Z,11.13
2018-05-09T12:52:33.269Z,8.90
2018-05-09T12:55:02.219Z,11.33
2018-05-09T12:57:31.171Z,7.70
2018-05-09T13:00:00.296Z,9.43
2018-05-09T13:02:29.263Z,11.73
2018-05-09T13:04:58.224Z,9.47
2018-05-09T13:07:27.313Z,10.97
2018-05-09T13:09:56.259Z,7.70
2018-05-09T13:12:25.300Z,7.70
2018-05-09T13:14:54.253Z,9.65
2018-05-09T13:17:23.193Z,9.10
2018-05-09T13:19:52.212Z,8.05
2018-05-09T13:22:21.159Z,9.32
2018-05-09T13:24:50.123Z,6.12
2018-05-09T13:27:19.053Z,9.07
2018-05-09T13:29:47.988Z,8.70
2018-05-09T13:32:17.086Z,9.30
2018-05-09T13:34:46.029Z,9.20
2018-05-09T13:37:14.978Z,13.57
2018-05-09T13:39:43.936Z,9.20
2018-05-09T13:42:12.887Z,10.53
2018-05-09T13:44:41.817Z,7.57
2018-05-09T13:47:10.763Z,8.87
2018-05-09T13:49:39.769Z,8.93
2018-05-09T13:52:09.265Z,12.57
2018-05-09T13:54:38.263Z,15.20
2018-05-09T13:57:07.215Z,5.63
2018-05-09T13:59:36.175Z,9.43
2018-05-09T14:02:05.114Z,10.13
2018-05-09T14:04:34.058Z,8.07
2018-05-09T14:07:03.050Z,12.07
2018-05-09T14:09:32.546Z,9.57
2018-05-09T14:12:02.202Z,9.00
2018-05-09T14:14:31.154Z,12.20
2018-05-09T14:17:00.098Z,8.43
2018-05-09T14:19:29.163Z,11.83
2018-05-09T14:21:58.276Z,10.00
2018-05-09T14:24:27.205Z,12.97
2018-05-09T14:26:56.145Z,10.57
2018-05-09T14:29:25.116Z,10.87
2018-05-09T14:31:57.088Z,13.55
2018-05-09T14:34:26.029Z,11.43
2018-05-09T14:36:54.969Z,9.27
2018-05-09T14:39:23.935Z,8.27
2018-05-09T14:41:52.890Z,7.35
2018-05-09T14:44:21.836Z,9.80
2018-05-09T14:46:50.777Z,9.23
2018-05-09T14:49:20.264Z,8.02
2018-05-09T14:51:49.208Z,7.20
2018-05-09T14:54:18.155Z,11.95
2018-05-09T14:56:47.131Z,11.75
2018-05-09T14:59:16.177Z,6.87
2018-05-09T15:01:45.175Z,8.82
2018-05-09T15:04:14.742Z,8.20
2018-05-09T15:06:43.679Z,8.98
2018-05-09T15:09:12.681Z,7.73
2018-05-09T15:11:41.615Z,12.27
2018-05-09T15:14:10.607Z,11.63
2018-05-09T15:16:39.572Z,9.93
2018-05-09T15:19:08.529Z,8.27
2018-05-09T15:21:37.490Z,16.77
2018-05-09T15:24:06.491Z,24.43
2018-05-09T15:26:35.460Z,33.00
2018-05-09T15:29:04.422Z,19.10
2018-05-09T15:31:33.382Z,18.73
2018-05-09T15:34:02.342Z,17.20
2018-05-09T15:36:31.357Z,13.47
2018-05-09T15:39:00.339Z,13.50
2018-05-09T15:41:29.287Z,9.43
2018-05-09T15:43:58.259Z,8.17
2018-05-09T15:46:27.240Z,12.73
2018-05-09T15:48:56.254Z,11.60
2018-05-09T15:51:25.209Z,10.60
2018-05-09T15:53:54.171Z,8.53
2018-05-09T15:56:23.114Z,10.93
2018-05-09T15:58:52.058Z,12.97
2018-05-09T16:01:21.046Z,9.37
2018-05-09T16:03:50.181Z,12.83
2018-05-09T16:06:19.132Z,13.93
2018-05-09T16:08:48.476Z,13.20
2018-05-09T16:11:17.413Z,9.37
2018-05-09T16:13:46.403Z,10.67
2018-05-09T16:16:15.383Z,11.03
2018-05-09T16:18:44.345Z,9.70
2018-05-09T16:21:13.368Z,11.80
2018-05-09T16:23:42.702Z,12.70
2018-05-09T16:26:11.688Z,13.77
2018-05-09T16:28:40.641Z,17.63
2018-05-09T16:31:09.594Z,14.50
2018-05-09T16:33:39.406Z,12.47
2018-05-09T16:36:08.428Z,13.77
2018-05-09T16:38:37.398Z,12.13
2018-05-09T16:41:06.365Z,13.53
2018-05-09T16:43:35.318Z,12.50
2018-05-09T16:46:04.271Z,17.40
2018-05-09T16:48:33.223Z,21.07
2018-05-09T16:51:02.217Z,15.23
2018-05-09T16:53:31.184Z,15.43
2018-05-09T16:56:01.269Z,12.87
2018-05-09T16:58:30.227Z,21.20
2018-05-09T17:00:59.178Z,16.77
2018-05-09T17:03:28.168Z,13.93
2018-05-09T17:05:57.121Z,20.50
2018-05-09T17:08:26.090Z,14.10
2018-05-09T17:10:55.051Z,14.40
2018-05-09T17:13:23.991Z,14.73
2018-05-09T17:15:52.978Z,17.50
2018-05-09T17:18:21.928Z,19.00
2018-05-09T17:20:50.880Z,12.20
2018-05-09T17:23:19.831Z,12.73
2018-05-09T17:25:48.791Z,16.47
2018-05-09T17:28:17.795Z,16.60
2018-05-09T17:30:46.782Z,14.60
2018-05-09T17:33:15.736Z,18.80
2018-05-09T17:35:44.700Z,19.47
2018-05-09T17:38:13.655Z,25.57
2018-05-09T17:40:42.638Z,24.77
2018-05-09T17:43:11.591Z,18.50
2018-05-09T17:45:40.546Z,16.10
2018-05-09T17:48:10.462Z,17.73
2018-05-09T17:50:39.431Z,14.97
2018-05-09T17:53:08.405Z,14.10
2018-05-09T17:55:37.347Z,18.40
2018-05-09T17:58:06.352Z,15.03
2018-05-09T18:00:35.316Z,21.80
2018-05-09T18:03:04.261Z,23.07
2018-05-09T18:05:33.257Z,23.10
2018-05-09T18:08:02.207Z,19.83
2018-05-09T18:10:31.156Z,24.33
2018-05-09T18:13:00.099Z,20.00
2018-05-09T18:15:29.047Z,19.87
2018-05-09T18:17:58.126Z,20.77
2018-05-09T18:20:27.065Z,19.53
2018-05-09T18:22:56.124Z,20.90
2018-05-09T18:25:25.080Z,19.73
2018-05-09T18:27:54.237Z,23.97
2018-05-09T18:30:23.229Z,17.93
2018-05-09T18:32:52.190Z,19.43
2018-05-09T18:35:21.149Z,28.13
2018-05-09T18:37:50.098Z,19.27
2018-05-09T18:40:19.099Z,18.77
2018-05-09T18:42:48.219Z,16.10
2018-05-09T18:45:17.163Z,13.87
2018-05-09T18:47:46.140Z,18.87
2018-05-09T18:50:15.093Z,16.83
2018-05-09T18:52:44.059Z,26.23
2018-05-09T18:55:13.058Z,32.43
2018-05-09T18:57:42.046Z,19.20
2018-05-09T19:00:10.996Z,25.07
2018-05-09T19:02:39.970Z,23.27
2018-05-09T19:05:08.922Z,28.50
2018-05-09T19:07:37.944Z,24.00
2018-05-09T19:10:06.895Z,19.00
2018-05-09T19:12:35.890Z,23.80
2018-05-09T19:15:04.833Z,19.47
2018-05-09T19:17:33.774Z,18.63
2018-05-09T19:20:02.758Z,10.77
2018-05-09T19:22:31.716Z,8.73
2018-05-09T19:25:00.701Z,14.27
2018-05-09T19:27:29.656Z,15.40
2018-05-09T19:29:58.610Z,24.27
2018-05-09T19:32:27.634Z,17.23
2018-05-09T19:34:56.589Z,19.23
2018-05-09T19:37:25.535Z,14.97
2018-05-09T19:39:54.478Z,18.83
2018-05-09T19:42:23.444Z,25.00
2018-05-09T19:44:52.428Z,25.93
2018-05-09T19:47:21.382Z,21.93
2018-05-09T19:49:50.345Z,21.23
2018-05-09T19:52:19.306Z,22.20
2018-05-09T19:54:48.258Z,18.03
2018-05-09T19:57:17.243Z,15.20
2018-05-09T19:59:46.204Z,24.80
2018-05-09T20:02:15.158Z,18.90
2018-05-09T20:04:44.431Z,19.87
2018-05-09T20:07:13.384Z,19.80
2018-05-09T20:09:43.273Z,16.43
2018-05-09T20:12:12.238Z,18.47
2018-05-09T20:14:42.047Z,19.87
2018-05-09T20:17:11.001Z,18.67
2018-05-09T20:19:39.954Z,19.57
2018-05-09T20:22:08.938Z,22.47
2018-05-09T20:24:37.880Z,23.87
2018-05-09T20:27:06.835Z,23.67
2018-05-09T20:29:35.821Z,26.83
2018-05-09T20:32:10.723Z,24.97
2018-05-09T20:34:39.674Z,23.87
2018-05-09T20:37:08.631Z,27.00
2018-05-09T20:39:37.663Z,26.80
2018-05-09T20:42:06.708Z,23.60
2018-05-09T20:44:35.640Z,23.30
2018-05-09T20:47:04.955Z,23.60
2018-05-09T20:49:33.920Z,30.27
2018-05-09T20:52:02.922Z,26.50
2018-05-09T20:54:32.802Z,25.63
2018-05-09T20:57:01.771Z,29.67
2018-05-09T20:59:31.401Z,27.83
2018-05-09T21:02:00.367Z,25.03
2018-05-09T21:04:29.373Z,25.43
2018-05-09T21:06:58.333Z,29.73
2018-05-09T21:12:08.429Z,29.23
2018-05-09T21:14:37.767Z,27.00
2018-05-09T21:17:06.798Z,29.00
2018-05-09T21:19:35.774Z,30.83
2018-05-09T21:22:04.738Z,28.47
2018-05-09T21:24:33.713Z,30.87
2018-05-09T21:27:02.788Z,28.77
2018-05-09T21:29:31.760Z,26.07
2018-05-09T21:32:00.730Z,24.63
2018-05-09T21:34:29.699Z,20.07
2018-05-09T21:36:58.687Z,26.40
2018-05-09T21:39:27.659Z,19.53
2018-05-09T21:41:56.677Z,20.13
2018-05-09T21:44:25.643Z,18.63
2018-05-09T21:46:54.653Z,19.10
2018-05-09T21:49:23.646Z,14.33
2018-05-09T21:51:52.627Z,16.97
2018-05-09T21:54:21.592Z,12.60
2018-05-09T21:56:50.591Z,17.53
2018-05-09T21:59:19.610Z,14.73
2018-05-09T22:01:48.594Z,17.57
2018-05-09T22:04:17.602Z,16.60
2018-05-09T22:06:46.561Z,18.10
2018-05-09T22:09:15.535Z,19.63
2018-05-09T22:11:44.517Z,15.40
2018-05-09T22:14:13.512Z,14.10
2018-05-09T22:16:42.510Z,16.50
2018-05-09T22:19:11.478Z,17.53
2018-05-09T22:21:40.443Z,16.70
2018-05-09T22:24:09.767Z,14.50
2018-05-09T22:26:38.734Z,20.00
2018-05-09T22:29:07.797Z,17.57
2018-05-09T22:31:36.780Z,14.37
2018-05-09T22:34:05.774Z,20.77
2018-05-09T22:36:34.756Z,18.17
2018-05-09T22:39:03.731Z,21.50
2018-05-09T22:41:32.746Z,16.10
2018-05-09T22:44:01.771Z,20.83
2018-05-09T22:46:30.757Z,18.43
2018-05-09T22:49:00.041Z,21.87
2018-05-09T22:51:29.028Z,15.60
2018-05-09T22:56:22.884Z,17.53
2018-05-09T22:58:51.863Z,16.63
2018-05-09T23:01:20.879Z,15.80
2018-05-09T23:03:49.832Z,15.00
2018-05-09T23:06:18.787Z,19.90
2018-05-09T23:08:47.765Z,18.60
2018-05-09T23:11:16.721Z,17.57
2018-05-09T23:13:45.730Z,18.13
2018-05-09T23:16:14.721Z,19.23
2018-05-09T23:18:43.709Z,16.67
2018-05-09T23:21:12.678Z,18.30
2018-05-09T23:23:41.646Z,16.20
2018-05-09T23:26:10.669Z,16.70
2018-05-09T23:28:39.675Z,14.77
2018-05-09T23:31:08.640Z,17.97
2018-05-09T23:33:37.601Z,17.13
2018-05-09T23:36:06.571Z,13.83
2018-05-09T23:38:35.589Z,17.93
2018-05-09T23:41:04.564Z,18.27
2018-05-09T23:43:33.530Z,19.13
2018-05-09T23:46:02.804Z,19.77
2018-05-09T23:48:31.784Z,13.40
2018-05-09T23:51:00.792Z,15.40
2018-05-09T23:53:29.762Z,19.40
2018-05-09T23:55:58.730Z,19.67
2018-05-09T23:58:27.686Z,17.23
